This is the latest recevied weather packets stored in our database for station/object VA3ZFM-10. If no packets are shown the sender has not sent any weather packets the latest 1 day(s).
| Time | Temp. | Humidity | Pressure | Rain* | Wind** | Luminosity | Snow |
|---|---|---|---|---|---|---|---|
| 1778017855 | 9.44° C | 47% | 1005.1 hPa | 0 mm | 0.89 m/s, 245° | - | - |
| 1778017554 | 9.44° C | 47% | 1005.4 hPa | 0 mm | 0.89 m/s, 150° | - | - |
| 1778017250 | 9.44° C | 47% | 1005.4 hPa | 0 mm | 0.45 m/s, 250° | - | - |
| 1778016948 | 9.44° C | 47% | 1005.4 hPa | 0 mm | 0 m/s | - | - |
| 1778016644 | 9.44° C | 46% | 1005.4 hPa | 0 mm | 0 m/s | - | - |
| 1778016340 | 9.44° C | 47% | 1005.5 hPa | 0 mm | 0.45 m/s, 226° | - | - |
| 1778016038 | 9.44° C | 46% | 1005.2 hPa | 0 mm | 3.13 m/s, 9° | - | - |
| 1778015735 | 9.44° C | 47% | 1004.9 hPa | 0 mm | 1.79 m/s, 262° | - | - |
| 1778015431 | 9.44° C | 48% | 1004.8 hPa | 0 mm | 0.45 m/s, 337° | - | - |
| 1778015128 | 9.44° C | 48% | 1004.7 hPa | 0 mm | 0 m/s | - | - |
| 1778014825 | 9.44° C | 47% | 1004.5 hPa | 0 mm | 1.79 m/s, 263° | - | - |
| 1778014523 | 9.44° C | 47% | 1004.4 hPa | 0 mm | 0.45 m/s, 339° | - | - |
| 1778014220 | 9.44° C | 50% | 1004.8 hPa | 0 mm | 0.45 m/s, 342° | - | - |
| 1778013918 | 9.44° C | 49% | 1004.4 hPa | 0 mm | 0 m/s | - | - |
| 1778013615 | 10° C | 48% | 1004.2 hPa | 0 mm | 2.24 m/s, 227° | - | - |
| 1778013311 | 10° C | 48% | 1004.4 hPa | 0 mm | 0.89 m/s, 248° | - | - |
| 1778013008 | 10° C | 48% | 1004 hPa | 0 mm | 0 m/s | - | - |
| 1778012704 | 10.56° C | 47% | 1004.3 hPa | 0 mm | 2.68 m/s, 230° | - | - |
| 1778012400 | 11.11° C | 49% | 1004.3 hPa | 0 mm | 0.45 m/s, 216° | - | - |
| 1778012097 | 11.11° C | 50% | 1004 hPa | 0 mm | 0.45 m/s, 135° | - | - |
| 1778011795 | 11.11° C | 49% | 1003.9 hPa | 0 mm | 0.89 m/s, 227° | - | - |
| 1778011493 | 11.11° C | 49% | 1003.9 hPa | 0 mm | 1.34 m/s, 231° | - | - |
| 1778011188 | 11.11° C | 49% | 1003.7 hPa | 0 mm | 1.79 m/s, 214° | - | - |
| 1778010886 | 11.67° C | 48% | 1003.6 hPa | 0 mm | 0.45 m/s, 229° | - | - |
| 1778010583 | 11.67° C | 49% | 1003.4 hPa | 0 mm | 0.45 m/s, 178° | - | - |
* Rain latest hour (hover to see other rain measurements)
** Current wind speed in m/s (hover to see current wind gust speed)